Time;durP1;ratioP1;P1;durP2;ratioP2;P2;SDS_P1;SDS_P2;PMS_P1;PMS_P2;Temp;Humidity;BMP_temperature;BMP_pressure;BME280_temperature;BME280_humidity;BME280_pressure;Samples;Min_cycle;Max_cycle;Signal;HPM_P1;HPM_P2
2021/03/28 00:00:11;;;;;;;45.09;27.29;;;;;;;6.37;52.15;100106.17;320067;113;2651018;-71
2021/03/28 00:01:26;;;;;;;46.07;26.15;;;;;;;6.34;52.10;100117.25;329226;111;2497888;-73
2021/03/28 00:02:52;;;;;;;42.31;26.85;;;;;;;6.35;52.05;100110.03;328768;109;1960880;-72
2021/03/28 00:04:03;;;;;;;42.86;25.02;;;;;;;6.35;52.08;100107.34;362044;110;1962033;-72
2021/03/28 00:05:27;;;;;;;43.27;27.24;;;;;;;6.34;52.07;100106.52;354201;113;1965043;-72
2021/03/28 00:06:36;;;;;;;44.03;26.08;;;;;;;6.32;52.20;100108.52;363051;111;1962021;-72
2021/03/28 00:07:48;;;;;;;39.34;25.57;;;;;;;6.29;52.18;100100.81;361008;111;1962942;-72
2021/03/28 00:09:27;;;;;;;41.34;26.11;;;;;;;6.29;52.19;100108.86;345102;113;2902026;-73
2021/03/28 00:10:40;;;;;;;39.37;24.21;;;;;;;6.27;52.23;100108.22;325285;111;2027574;-71
2021/03/28 00:12:08;;;;;;;44.86;26.91;;;;;;;6.25;52.24;100110.22;362656;111;1962007;-71
2021/03/28 00:13:17;;;;;;;44.21;27.22;;;;;;;6.22;52.29;100112.38;337987;113;2270036;-72
2021/03/28 00:14:27;;;;;;;40.90;24.05;;;;;;;6.19;52.45;100104.67;323384;111;2667042;-72
2021/03/28 00:15:40;;;;;;;39.48;25.36;;;;;;;6.08;52.54;100087.89;353218;113;1961996;-72
2021/03/28 00:16:48;;;;;;;39.51;25.23;;;;;;;6.15;52.66;100101.48;362655;111;1961981;-72
2021/03/28 00:18:09;;;;;;;41.73;24.39;;;;;;;6.13;52.65;100103.49;363438;111;1961962;-72
2021/03/28 00:19:28;;;;;;;37.09;22.46;;;;;;;6.12;52.76;100105.34;360488;111;1962008;-71
2021/03/28 00:20:38;;;;;;;39.53;25.59;;;;;;;6.09;52.73;100111.05;361173;111;1963978;-72
2021/03/28 00:22:00;;;;;;;38.94;23.84;;;;;;;6.10;52.73;100103.83;363594;111;1962020;-72
2021/03/28 00:23:10;;;;;;;41.71;23.86;;;;;;;6.10;52.76;100106.52;326735;111;1962032;-71
2021/03/28 00:24:19;;;;;;;41.87;24.25;;;;;;;6.11;52.74;100108.17;339467;111;2230992;-72
2021/03/28 00:25:52;;;;;;;39.46;24.54;;;;;;;6.11;52.85;100110.86;324335;111;2672957;-72
2021/03/28 00:27:11;;;;;;;41.03;25.58;;;;;;;6.09;52.94;100107.53;353858;113;1961912;-71
2021/03/28 00:28:26;;;;;;;37.97;24.08;;;;;;;6.08;52.87;100108.52;361187;111;1961997;-72
2021/03/28 00:29:44;;;;;;;41.16;25.72;;;;;;;6.08;52.88;100105.83;361059;111;1962989;-71
2021/03/28 00:30:52;;;;;;;38.11;24.74;;;;;;;6.07;52.91;100109.53;360914;111;1961965;-72
2021/03/28 00:32:11;;;;;;;37.01;24.74;;;;;;;6.06;52.97;100106.02;362068;111;1964025;-72
2021/03/28 00:33:26;;;;;;;44.70;24.97;;;;;;;6.08;52.94;100100.47;360784;111;1961985;-72
2021/03/28 00:34:38;;;;;;;43.85;25.39;;;;;;;6.05;53.03;100107.00;362778;111;1961918;-72
2021/03/28 00:35:59;;;;;;;43.34;25.52;;;;;;;6.05;53.04;100111.53;355483;111;1961924;-72
2021/03/28 00:37:12;;;;;;;40.02;24.41;;;;;;;6.03;53.09;100105.48;361782;110;1962032;-72
2021/03/28 00:38:21;;;;;;;39.88;24.67;;;;;;;6.01;53.11;100108.36;363393;111;1969981;-72
2021/03/28 00:39:57;;;;;;;38.67;24.02;;;;;;;6.01;53.16;100107.52;346772;111;1961933;-72
2021/03/28 00:41:15;;;;;;;40.13;25.76;;;;;;;5.99;53.22;100109.52;361516;111;1962009;-72
2021/03/28 00:42:28;;;;;;;39.33;23.87;;;;;;;5.96;53.26;100101.81;362486;111;1961938;-71
2021/03/28 00:43:38;;;;;;;;;;;;;;;5.94;53.32;100110.01;365233;111;1961022;-71
2021/03/28 00:44:48;;;;;;;38.86;22.97;;;;;;;5.93;53.56;100109.17;328508;111;2571890;-72
2021/03/28 00:45:59;;;;;;;43.90;25.47;;;;;;;5.93;53.34;100103.81;322134;111;2727014;-72
2021/03/28 00:47:06;;;;;;;38.36;23.90;;;;;;;5.94;53.30;100108.16;307419;108;2217662;-72
2021/03/28 00:48:30;;;;;;;38.86;25.30;;;;;;;5.93;53.25;100110.99;360828;111;1962980;-71
2021/03/28 00:49:41;;;;;;;38.72;24.31;;;;;;;5.93;53.38;100109.17;361206;111;1962004;-72
2021/03/28 00:50:59;;;;;;;38.79;24.26;;;;;;;5.91;53.33;100110.31;362421;111;1964041;-71
2021/03/28 00:52:11;;;;;;;36.14;23.38;;;;;;;5.92;53.26;100110.12;360363;111;1962080;-72
2021/03/28 00:53:39;;;;;;;39.25;24.77;;;;;;;5.94;53.17;100115.37;321664;113;2591069;-72
2021/03/28 00:54:48;;;;;;;39.18;24.03;;;;;;;5.94;53.22;100110.01;357418;111;1962019;-72
2021/03/28 00:56:06;;;;;;;38.46;24.26;;;;;;;5.94;53.15;100113.52;354569;113;1962001;-71
2021/03/28 00:57:25;;;;;;;41.34;25.28;;;;;;;5.92;53.26;100103.94;336959;112;1961997;-71
2021/03/28 00:58:47;;;;;;;40.72;24.87;;;;;;;5.91;53.34;100110.31;320340;111;2237925;-72
2021/03/28 01:00:15;;;;;;;41.39;25.46;;;;;;;5.88;53.36;100111.48;360958;111;1961981;-71
2021/03/28 01:01:31;;;;;;;41.33;24.71;;;;;;;5.87;53.45;100108.95;353239;113;1964016;-71
2021/03/28 01:02:40;;;;;;;42.36;27.33;;;;;;;5.83;53.58;100108.45;361445;111;1962004;-72
2021/03/28 01:04:00;;;;;;;43.08;25.71;;;;;;;5.81;53.63;100107.77;354245;111;1964011;-71
2021/03/28 01:05:37;;;;;;;39.90;25.73;;;;;;;5.80;53.72;100114.14;362761;111;1961938;-72
2021/03/28 01:06:57;;;;;;;41.93;26.22;;;;;;;5.79;53.70;100109.77;340491;111;2220970;-71
2021/03/28 01:08:24;;;;;;;43.38;26.42;;;;;;;5.77;53.81;100108.25;361232;111;1961984;-72
2021/03/28 01:10:06;;;;;;;42.23;25.79;;;;;;;5.73;53.92;100105.08;361573;108;1964984;-72
2021/03/28 01:11:16;;;;;;;40.41;26.44;;;;;;;5.70;53.96;100108.92;324192;111;2695971;-72
2021/03/28 01:12:44;;;;;;;45.18;29.14;;;;;;;5.67;54.06;100108.41;315273;111;2829978;-72
2021/03/28 01:14:17;;;;;;;46.46;27.58;;;;;;;5.65;54.24;100108.56;350586;111;1962021;-70
2021/03/28 01:15:44;;;;;;;42.09;27.13;;;;;;;5.62;54.33;100106.22;360166;111;1961934;-71
2021/03/28 01:17:10;;;;;;;40.14;26.02;;;;;;;5.59;54.48;100111.91;361472;111;1963990;-72
2021/03/28 01:18:31;;;;;;;44.09;27.29;;;;;;;5.58;54.37;100114.73;319586;111;2094930;-71
2021/03/28 01:19:52;;;;;;;44.08;27.60;;;;;;;5.56;54.32;100101.52;363160;110;1962026;-71
2021/03/28 01:21:20;;;;;;;44.84;26.41;;;;;;;5.56;54.53;100106.02;360843;112;1961979;-71
2021/03/28 01:22:51;;;;;;;44.94;26.44;;;;;;;5.59;54.57;100111.91;358175;112;1961961;-71
2021/03/28 01:24:16;;;;;;;43.11;26.44;;;;;;;5.60;54.55;100110.06;361090;112;1962012;-71
2021/03/28 01:25:59;;;;;;;43.93;25.58;;;;;;;5.59;54.56;100105.72;359914;112;1964018;-71
2021/03/28 01:27:12;;;;;;;39.49;24.82;;;;;;;5.58;54.66;100110.21;360646;112;1963029;-72
2021/03/28 01:28:30;;;;;;;41.45;26.32;;;;;;;5.59;54.41;100111.91;327600;114;1962027;-71
2021/03/28 01:29:44;;;;;;;41.74;26.51;;;;;;;5.61;54.43;100115.27;335051;113;1961878;-72
2021/03/28 01:30:53;;;;;;;39.52;25.81;;;;;;;5.63;54.44;100115.09;356136;113;1961953;-72
2021/03/28 01:32:04;;;;;;;43.54;27.90;;;;;;;5.67;54.50;100108.41;356799;113;1962012;-72
2021/03/28 01:33:12;;;;;;;;;;;;;;;5.69;54.53;100117.97;359221;113;1961003;-72
2021/03/28 01:34:31;;;;;;;40.79;25.33;;;;;;;5.69;54.64;100120.66;352509;114;1960922;-72
2021/03/28 01:35:52;;;;;;;43.11;25.27;;;;;;;5.69;54.54;100114.45;340584;114;1962014;-70
2021/03/28 01:37:10;;;;;;;45.73;25.19;;;;;;;5.70;54.56;100118.80;355078;113;1964084;-72
2021/03/28 01:38:23;;;;;;;45.27;26.47;;;;;;;5.70;54.43;100116.95;334739;113;1961940;-72
2021/03/28 01:39:57;;;;;;;46.91;26.82;;;;;;;5.73;54.42;100121.16;316678;113;2704130;-72
2021/03/28 01:41:06;;;;;;;42.94;25.80;;;;;;;5.71;54.51;100117.80;345841;115;1962031;-71
2021/03/28 01:42:16;;;;;;;45.16;27.41;;;;;;;5.70;54.38;100122.32;342914;116;1962053;-72
2021/03/28 01:43:42;;;;;;;40.96;27.15;;;;;;;5.70;54.44;100121.48;344294;113;1961992;-72
2021/03/28 01:44:51;;;;;;;44.99;27.17;;;;;;;5.69;54.56;100125.19;317082;114;2217730;-72
2021/03/28 01:46:10;;;;;;;43.55;25.82;;;;;;;5.69;54.52;100117.97;304446;115;2795989;-72
2021/03/28 01:47:28;;;;;;;42.28;25.96;;;;;;;5.69;54.53;100125.19;357130;113;1961897;-72
2021/03/28 01:48:42;;;;;;;41.26;25.86;;;;;;;5.67;54.75;100124.50;334702;119;1963936;-72
2021/03/28 01:50:16;;;;;;;42.01;25.58;;;;;;;5.67;54.48;100119.97;342219;113;1962083;-72
2021/03/28 01:51:34;;;;;;;39.56;24.22;;;;;;;5.67;54.46;100116.45;354636;113;1964992;-72
2021/03/28 01:52:45;;;;;;;42.05;25.64;;;;;;;5.67;54.44;100119.14;356090;113;1961925;-72
2021/03/28 01:54:10;;;;;;;40.51;25.09;;;;;;;5.65;54.44;100115.77;354027;113;1961936;-71
2021/03/28 01:55:19;;;;;;;40.91;25.41;;;;;;;5.63;54.43;100118.60;332635;113;1961905;-71
2021/03/28 01:56:31;;;;;;;44.06;25.52;;;;;;;5.61;54.55;100122.45;306755;113;2206673;-71
2021/03/28 01:57:57;;;;;;;43.42;26.64;;;;;;;5.58;54.64;100118.25;353270;114;1962015;-72
2021/03/28 01:59:20;;;;;;;40.75;25.69;;;;;;;5.58;54.59;100122.78;355608;113;1960902;-71
2021/03/28 02:00:30;;;;;;;44.79;27.89;;;;;;;5.56;54.72;100128.31;355146;113;1961949;-72
2021/03/28 02:01:58;;;;;;;44.57;27.06;;;;;;;5.56;54.71;100122.09;355901;113;1961881;-72
2021/03/28 02:03:22;;;;;;;39.42;26.09;;;;;;;5.56;54.73;100116.73;356781;113;1962005;-72
2021/03/28 02:04:43;;;;;;;42.46;26.29;;;;;;;5.57;54.69;100110.39;355511;113;1961938;-72
2021/03/28 02:06:08;;;;;;;45.38;28.12;;;;;;;5.56;54.66;100122.95;355453;113;1961956;-72
2021/03/28 02:07:42;;;;;;;42.39;26.18;;;;;;;5.56;54.66;100119.41;349449;113;2874030;-71
2021/03/28 02:08:51;;;;;;;43.26;26.72;;;;;;;5.56;54.66;100122.95;356435;113;1961941;-71
2021/03/28 02:10:12;;;;;;;41.54;25.81;;;;;;;5.57;54.63;100121.11;357686;113;1961968;-71
2021/03/28 02:11:27;;;;;;;42.95;26.27;;;;;;;5.59;54.62;100127.98;356315;113;1961991;-71
2021/03/28 02:12:43;;;;;;;42.31;27.51;;;;;;;5.59;54.57;100127.16;357192;113;1963989;-72
2021/03/28 02:14:14;;;;;;;41.04;24.78;;;;;;;5.58;54.58;100125.45;309454;113;2844945;-72
2021/03/28 02:15:26;;;;;;;40.72;26.31;;;;;;;5.59;54.58;100121.80;341954;113;1962026;-72
2021/03/28 02:16:53;;;;;;;42.66;26.98;;;;;;;5.62;54.45;100121.47;356936;112;1961945;-72
2021/03/28 02:18:21;;;;;;;42.51;27.22;;;;;;;5.64;54.41;100120.30;314260;113;2106952;-71
2021/03/28 02:19:31;;;;;;;42.69;25.67;;;;;;;5.65;54.30;100115.77;320071;113;2689008;-71
2021/03/28 02:21:03;;;;;;;45.70;25.58;;;;;;;5.65;54.29;100118.45;307998;112;2882080;-71
2021/03/28 02:22:24;;;;;;;35.42;23.27;;;;;;;5.64;54.26;100116.79;358160;111;1963031;-72
2021/03/28 02:23:45;;;;;;;39.89;24.06;;;;;;;5.66;54.02;100115.63;361030;111;1970989;-72
2021/03/28 02:24:55;;;;;;;42.19;24.83;;;;;;;5.66;53.93;100117.44;323214;111;2025592;-72
2021/03/28 02:26:21;;;;;;;40.05;24.12;;;;;;;5.66;53.88;100120.98;327820;111;2570032;-71
2021/03/28 02:27:45;;;;;;;37.83;23.97;;;;;;;5.67;53.87;100124.50;353532;113;1961977;-71
2021/03/28 02:29:01;;;;;;;38.93;23.79;;;;;;;5.66;53.82;100115.63;359696;112;1962044;-71
2021/03/28 02:30:13;;;;;;;39.02;23.58;;;;;;;5.65;53.74;100119.29;355515;113;1961964;-72
2021/03/28 02:31:57;;;;;;;38.78;23.74;;;;;;;5.66;53.79;100115.63;326030;112;2945006;-71
2021/03/28 02:33:16;;;;;;;40.64;23.56;;;;;;;5.64;53.77;100117.63;322031;113;2617013;-71
2021/03/28 02:34:28;;;;;;;39.16;24.84;;;;;;;5.62;53.75;100114.26;360555;112;1961906;-71
2021/03/28 02:35:40;;;;;;;39.42;24.71;;;;;;;5.59;53.89;100116.44;354064;113;1961928;-72
2021/03/28 02:37:06;;;;;;;40.57;26.33;;;;;;;5.55;53.88;100115.91;360073;112;1961994;-71
2021/03/28 02:38:32;;;;;;;42.23;25.22;;;;;;;5.54;54.00;100118.77;335357;113;2225966;-72
2021/03/28 02:39:47;;;;;;;44.08;25.68;;;;;;;5.50;54.11;100119.09;356474;112;1962049;-71
2021/03/28 02:41:05;;;;;;;43.42;26.41;;;;;;;5.48;54.15;100115.73;351582;114;1961956;-71
2021/03/28 02:42:20;;;;;;;41.06;25.13;;;;;;;5.48;54.23;100114.89;326071;112;2604921;-71
2021/03/28 02:43:47;;;;;;;43.43;25.81;;;;;;;5.43;54.34;100123.41;317565;114;1963136;-71
2021/03/28 02:45:00;;;;;;;38.94;24.41;;;;;;;5.44;54.38;100121.56;359865;112;1962985;-72
2021/03/28 02:46:21;;;;;;;44.07;27.19;;;;;;;5.43;54.41;100117.22;354890;113;1961977;-72
2021/03/28 02:47:56;;;;;;;39.56;23.39;;;;;;;5.40;54.46;100122.87;358046;112;1962025;-72
2021/03/28 02:49:31;;;;;;;35.23;22.60;;;;;;;5.36;54.50;100113.50;331661;113;2363958;-71
2021/03/28 02:50:56;;;;;;;40.44;24.62;;;;;;;5.36;54.45;100116.17;333965;112;2459995;-71
2021/03/28 02:52:12;;;;;;;41.97;25.23;;;;;;;5.34;54.53;100115.48;312131;111;2881416;-72
2021/03/28 02:53:41;;;;;;;35.26;22.91;;;;;;;5.31;54.72;100119.33;326644;111;1961974;-71
2021/03/28 02:55:02;;;;;;;39.02;23.03;;;;;;;5.29;54.65;100121.32;331019;113;2409016;-71
2021/03/28 02:56:29;;;;;;;37.12;22.59;;;;;;;5.28;54.65;100122.33;353394;113;1962015;-71
2021/03/28 02:58:12;;;;;;;38.55;23.74;;;;;;;5.27;54.60;100116.14;355300;113;1962037;-71
2021/03/28 02:59:35;;;;;;;34.74;21.57;;;;;;;5.28;54.57;100116.97;359021;112;1961978;-72
2021/03/28 03:01:03;;;;;;;35.72;22.32;;;;;;;5.29;54.34;100115.96;362539;111;1971028;-71
2021/03/28 03:02:42;;;;;;;38.29;22.22;;;;;;;5.30;54.37;100114.98;354407;113;1962978;-72
2021/03/28 03:04:08;;;;;;;40.43;22.64;;;;;;;5.30;54.31;100106.95;355016;113;1962960;-72
2021/03/28 03:05:32;;;;;;;37.16;21.20;;;;;;;5.28;54.38;100109.77;328522;112;2582930;-72
2021/03/28 03:07:04;;;;;;;35.85;22.49;;;;;;;5.29;54.35;100111.47;349065;115;1962003;-71
2021/03/28 03:08:35;;;;;;;34.20;21.27;;;;;;;5.28;54.31;100111.62;347133;115;1962022;-71
2021/03/28 03:10:06;;;;;;;35.91;21.14;;;;;;;5.26;54.29;100110.93;357955;112;1961965;-71
2021/03/28 03:11:39;;;;;;;39.42;23.08;;;;;;;5.25;54.29;100112.78;323562;111;2039694;-71
2021/03/28 03:13:03;;;;;;;39.03;21.85;;;;;;;5.25;54.28;100119.98;358811;111;1964007;-71
2021/03/28 03:14:16;;;;;;;36.67;22.65;;;;;;;5.26;54.27;100117.12;356342;113;1969987;-72
2021/03/28 03:15:34;;;;;;;40.17;24.08;;;;;;;5.28;54.24;100111.62;357877;111;1963954;-71
2021/03/28 03:17:06;;;;;;;44.03;25.72;;;;;;;5.26;54.24;100111.77;322579;111;2680980;-71
2021/03/28 03:18:31;;;;;;;33.10;20.85;;;;;;;5.25;54.31;100118.13;362231;111;1962932;-72
2021/03/28 03:19:43;;;;;;;38.28;22.67;;;;;;;5.27;54.11;100117.98;360503;111;1961933;-72
2021/03/28 03:21:17;;;;;;;37.07;23.03;;;;;;;5.29;54.08;100121.32;321514;111;2707936;-72
2021/03/28 03:22:54;;;;;;;38.16;22.92;;;;;;;5.28;54.10;100117.81;361111;111;1961998;-72
2021/03/28 03:24:33;;;;;;;36.51;21.78;;;;;;;5.27;54.09;100124.17;353875;111;1961982;-72
2021/03/28 03:26:17;;;;;;;37.25;22.59;;;;;;;5.28;54.01;100125.01;345227;113;1962003;-72
2021/03/28 03:27:50;;;;;;;39.14;22.11;;;;;;;5.28;53.97;100123.16;335580;113;1962898;-71
2021/03/28 03:29:12;;;;;;;32.33;19.79;;;;;;;5.27;53.93;100120.66;308429;113;2793940;-73
2021/03/28 03:30:27;;;;;;;32.76;21.11;;;;;;;5.28;53.82;100122.33;350086;113;1961953;-71
2021/03/28 03:31:40;;;;;;;32.31;20.53;;;;;;;5.29;53.77;100118.64;351306;113;1961939;-71
2021/03/28 03:33:11;;;;;;;37.83;22.59;;;;;;;5.29;53.74;100118.64;330055;113;1962001;-72
2021/03/28 03:34:35;;;;;;;34.29;20.29;;;;;;;5.32;53.74;100120.16;351379;115;1961952;-72
2021/03/28 03:36:03;;;;;;;35.16;21.26;;;;;;;5.35;53.69;100118.02;347899;113;1962067;-71
2021/03/28 03:37:33;;;;;;;37.22;21.57;;;;;;;5.37;53.58;100120.52;324736;113;2457993;-72
2021/03/28 03:38:58;;;;;;;32.50;20.09;;;;;;;5.38;53.51;100122.22;334571;115;1964002;-72
2021/03/28 03:40:31;;;;;;;33.10;21.31;;;;;;;5.39;53.35;100122.04;317110;115;1962042;-71
2021/03/28 03:41:48;;;;;;;32.89;19.55;;;;;;;5.39;53.31;100119.36;344734;115;1961985;-71
2021/03/28 03:43:15;;;;;;;35.63;19.74;;;;;;;5.44;53.09;100116.20;343847;115;1962937;-71
2021/03/28 03:44:47;;;;;;;36.65;21.86;;;;;;;5.44;52.86;100116.20;305499;115;2749152;-71
2021/03/28 03:46:06;;;;;;;33.53;21.17;;;;;;;5.42;52.99;100124.39;334185;119;1962171;-72
2021/03/28 03:47:27;;;;;;;33.13;20.58;;;;;;;5.43;52.98;100123.41;345463;113;1963876;-71
2021/03/28 03:48:52;;;;;;;37.77;19.97;;;;;;;5.42;52.95;100121.70;351399;113;1962085;-73
2021/03/28 03:50:09;;;;;;;33.44;20.36;;;;;;;5.47;52.84;100123.91;335264;113;2259962;-72
2021/03/28 03:51:33;;;;;;;32.21;21.19;;;;;;;5.39;52.80;100108.64;325325;113;1962083;-72
2021/03/28 03:52:45;;;;;;;34.38;19.91;;;;;;;5.48;52.69;100121.09;310651;113;2216988;-72
2021/03/28 03:54:01;;;;;;;33.42;20.57;;;;;;;5.45;52.72;100113.38;351224;113;1962036;-72
2021/03/28 03:55:13;;;;;;;34.44;20.59;;;;;;;5.47;52.75;100121.23;350612;113;1963911;-72
2021/03/28 03:56:42;;;;;;;31.79;19.93;;;;;;;5.48;52.71;100115.73;351426;113;1962046;-72
2021/03/28 03:57:54;;;;;;;34.19;21.11;;;;;;;5.50;52.56;100121.77;297525;117;2130183;-71
2021/03/28 03:59:18;;;;;;;32.23;20.13;;;;;;;5.53;52.51;100120.61;338267;117;1961935;-72
2021/03/28 04:00:35;;;;;;;31.73;18.63;;;;;;;5.56;52.34;100124.77;341169;116;1962025;-72
2021/03/28 04:02:08;;;;;;;35.71;20.01;;;;;;;5.56;52.28;100122.95;305825;116;2634059;-72
2021/03/28 04:03:33;;;;;;;32.72;19.06;;;;;;;5.59;52.15;100124.47;340294;116;1961975;-71
2021/03/28 04:05:01;;;;;;;33.55;20.51;;;;;;;5.65;51.89;100126.49;338661;117;1961900;-72
2021/03/28 04:06:22;;;;;;;28.79;18.59;;;;;;;5.59;51.83;100111.08;349213;114;1962013;-72
2021/03/28 04:07:55;;;;;;;28.72;17.88;;;;;;;5.11;51.68;100032.19;349947;114;1962102;-72
2021/03/28 04:09:10;;;;;;;30.31;17.84;;;;;;;5.70;51.54;100130.36;348871;114;1961944;-71
2021/03/28 04:10:50;;;;;;;30.94;17.28;;;;;;;5.75;51.43;100127.20;348008;114;1962031;-72
2021/03/28 04:12:14;;;;;;;26.37;16.67;;;;;;;5.79;51.18;100128.53;348288;114;1962032;-72
2021/03/28 04:13:47;;;;;;;29.30;16.50;;;;;;;5.82;51.00;100128.23;349486;114;1961977;-72
2021/03/28 04:15:25;;;;;;;28.74;17.15;;;;;;;5.87;50.82;100130.40;329483;114;1963012;-72
2021/03/28 04:16:41;;;;;;;28.78;16.94;;;;;;;5.92;50.59;100134.27;311562;114;2701939;-72
2021/03/28 04:17:50;;;;;;;28.04;16.99;;;;;;;5.96;50.31;100133.99;320873;114;1961994;-72
2021/03/28 04:19:20;;;;;;;30.59;17.93;;;;;;;5.99;50.32;100139.02;331261;114;2303984;-71
2021/03/28 04:20:52;;;;;;;31.05;18.29;;;;;;;5.99;50.26;100137.17;348932;114;1961849;-71
2021/03/28 04:22:19;;;;;;;33.46;18.79;;;;;;;6.01;50.23;100137.86;347779;114;1969026;-71
2021/03/28 04:23:31;;;;;;;29.21;18.24;;;;;;;6.02;50.09;100142.20;314936;114;1983588;-72
2021/03/28 04:24:55;;;;;;;30.76;18.39;;;;;;;6.04;50.11;100142.05;349896;114;1963055;-71
2021/03/28 04:26:16;;;;;;;25.14;16.04;;;;;;;6.08;49.86;100138.85;348937;114;1961940;-71
2021/03/28 04:27:45;;;;;;;29.57;17.10;;;;;;;6.09;49.77;100137.86;349485;114;1961891;-72
2021/03/28 04:29:06;;;;;;;29.89;17.44;;;;;;;6.14;49.70;100140.06;335397;119;1963945;-72
2021/03/28 04:30:42;;;;;;;32.76;18.26;;;;;;;6.16;49.61;100140.70;326956;114;2380914;-72
2021/03/28 04:32:06;;;;;;;28.56;16.41;;;;;;;6.18;49.51;100144.07;308460;114;2096660;-72
2021/03/28 04:33:18;;;;;;;31.86;18.94;;;;;;;6.21;49.41;100143.73;331820;114;2340823;-71
2021/03/28 04:34:27;;;;;;;27.02;17.24;;;;;;;6.24;49.25;100142.56;348928;114;1961945;-72
2021/03/28 04:35:47;;;;;;;27.88;16.72;;;;;;;6.25;49.25;100144.27;349653;114;1961940;-71
2021/03/28 04:37:21;;;;;;;29.48;16.73;;;;;;;6.28;49.11;100139.39;341991;116;1962054;-72
2021/03/28 04:38:45;;;;;;;29.97;17.12;;;;;;;6.30;48.94;100142.75;347834;113;1963941;-72
2021/03/28 04:40:03;;;;;;;27.54;16.51;;;;;;;6.33;48.92;100139.73;351397;113;1961943;-71
2021/03/28 04:41:46;;;;;;;28.53;17.02;;;;;;;6.33;48.87;100138.90;307318;117;2582975;-72
2021/03/28 04:43:16;;;;;;;28.42;16.47;;;;;;;6.35;48.83;100143.09;350726;113;1961982;-71
2021/03/28 04:44:54;;;;;;;26.91;15.74;;;;;;;6.41;48.63;100136.22;344023;115;1963064;-73
2021/03/28 04:46:16;;;;;;;29.10;16.82;;;;;;;6.44;48.57;100143.09;348582;113;1963001;-72
2021/03/28 04:47:29;;;;;;;34.22;18.78;;;;;;;6.47;48.48;100142.75;307513;113;2768016;-73
2021/03/28 04:48:58;;;;;;;31.03;17.26;;;;;;;6.47;48.48;100140.07;351372;113;1968958;-72
2021/03/28 04:50:25;;;;;;;33.01;19.54;;;;;;;6.48;48.49;100139.05;350214;113;1964034;-72
2021/03/28 04:51:48;;;;;;;28.57;17.33;;;;;;;6.49;48.42;100143.44;303841;113;2861012;-71
2021/03/28 04:53:20;;;;;;;31.94;17.81;;;;;;;6.52;48.15;100146.61;309280;113;2110010;-72
2021/03/28 04:54:38;;;;;;;29.82;17.82;;;;;;;6.55;48.29;100142.75;319485;115;1961953;-72
2021/03/28 04:55:59;;;;;;;31.79;17.88;;;;;;;6.59;48.06;100144.94;345479;115;1961042;-72
2021/03/28 04:57:25;;;;;;;33.08;19.07;;;;;;;6.64;48.03;100140.89;310399;115;2235872;-71
2021/03/28 04:58:46;;;;;;;26.27;16.74;;;;;;;6.67;47.88;100137.87;344290;115;1960890;-71
2021/03/28 05:00:01;;;;;;;31.96;17.78;;;;;;;6.73;47.68;100142.58;346042;115;1960762;-72
2021/03/28 05:01:23;;;;;;;32.34;18.34;;;;;;;6.76;47.52;100148.44;343629;115;1960812;-72
2021/03/28 05:03:03;;;;;;;31.91;18.63;;;;;;;6.80;47.52;100148.93;310795;117;1960875;-71
2021/03/28 05:04:36;;;;;;;31.12;18.29;;;;;;;6.83;47.38;100143.25;343529;116;1960754;-72
2021/03/28 05:06:02;;;;;;;;;;;;;;;6.88;47.38;100156.14;304249;118;2665045;-72
2021/03/28 05:07:29;;;;;;;32.56;18.72;;;;;;;6.93;47.34;100148.41;311132;113;1961115;-72
2021/03/28 05:08:42;;;;;;;39.34;17.38;;;;;;;6.98;47.13;100157.62;350995;113;1964060;-73
2021/03/28 05:10:07;;;;;;;27.57;18.02;;;;;;;7.02;46.94;100150.09;351378;113;1962083;-73
2021/03/28 05:11:36;;;;;;;30.86;16.90;;;;;;;7.04;46.86;100146.22;351880;113;1961931;-71
2021/03/28 05:13:21;;;;;;;31.63;17.97;;;;;;;7.11;46.62;100145.53;349413;113;1961999;-72
2021/03/28 05:14:33;;;;;;;32.73;17.48;;;;;;;7.13;46.53;100155.09;351180;113;1961981;-73
2021/03/28 05:16:04;;;;;;;28.68;17.63;;;;;;;7.17;46.21;100147.52;302766;113;2883920;-73
2021/03/28 05:17:28;;;;;;;32.47;16.74;;;;;;;7.19;46.31;100148.19;318557;117;1962949;-71
2021/03/28 05:19:00;;;;;;;31.73;17.94;;;;;;;7.22;46.24;100147.84;300085;117;2070519;-71
2021/03/28 05:20:31;;;;;;;29.59;16.46;;;;;;;7.27;46.20;100146.31;340626;116;1962027;-71
2021/03/28 05:21:58;;;;;;;27.02;16.63;;;;;;;7.31;45.96;100146.83;294976;122;2942981;-72
2021/03/28 05:23:22;;;;;;;32.41;18.10;;;;;;;7.37;45.80;100147.98;346414;113;1962018;-72
2021/03/28 05:24:40;;;;;;;29.48;16.69;;;;;;;7.40;45.70;100144.94;326741;111;1962020;-73
2021/03/28 05:25:57;;;;;;;26.13;16.42;;;;;;;7.43;45.67;100131.14;310660;112;2903045;-72
2021/03/28 05:27:15;;;;;;;39.41;18.13;;;;;;;7.47;45.42;100136.01;350336;114;1961986;-73
2021/03/28 05:28:43;;;;;;;31.77;16.64;;;;;;;7.50;45.46;100137.52;319735;114;2555929;-72
2021/03/28 05:30:04;;;;;;;34.04;18.24;;;;;;;7.56;45.47;100146.72;351370;114;1961980;-72
2021/03/28 05:31:13;;;;;;;31.42;17.27;;;;;;;7.60;45.32;100145.37;350792;114;1961973;-72
2021/03/28 05:32:57;;;;;;;32.04;18.04;;;;;;;7.65;45.27;100159.14;349322;114;1961873;-72
2021/03/28 05:34:30;;;;;;;27.53;16.93;;;;;;;7.68;45.24;100151.55;350147;114;1962006;-73
2021/03/28 05:35:43;;;;;;;;;;;;;;;7.74;45.21;100144.63;353217;114;1961063;-73
2021/03/28 05:37:10;;;;;;;30.85;16.84;;;;;;;7.81;45.16;100148.30;316515;114;2621961;-72
2021/03/28 05:38:22;;;;;;;31.39;17.32;;;;;;;7.88;44.97;100154.63;349786;113;1963045;-71
2021/03/28 05:39:41;;;;;;;29.56;16.34;;;;;;;7.94;44.86;100145.03;332419;114;2279009;-72
2021/03/28 05:41:02;;;;;;;34.06;18.13;;;;;;;8.00;44.78;100141.63;351186;113;1964981;-72
2021/03/28 05:42:14;;;;;;;34.73;18.77;;;;;;;8.07;44.68;100150.67;297243;114;2219356;-73
2021/03/28 05:43:38;;;;;;;35.71;19.46;;;;;;;8.13;44.59;100152.64;350736;114;1962060;-72
2021/03/28 05:44:53;;;;;;;32.84;16.65;;;;;;;8.19;44.56;100152.95;351186;114;1961955;-72
2021/03/28 05:46:19;;;;;;;30.98;16.98;;;;;;;8.26;44.32;100152.05;349326;114;1962022;-72
2021/03/28 05:47:45;;;;;;;32.12;18.58;;;;;;;8.32;44.21;100145.95;351488;114;1962039;-72
2021/03/28 05:49:07;;;;;;;38.64;18.52;;;;;;;8.38;44.18;100150.60;313129;114;2061315;-72
2021/03/28 05:50:39;;;;;;;32.85;18.17;;;;;;;8.46;43.96;100151.59;351331;114;1960597;-72
2021/03/28 05:52:03;;;;;;;33.37;17.13;;;;;;;8.52;43.91;100154.42;329533;114;2368946;-72
2021/03/28 05:53:47;;;;;;;34.22;18.37;;;;;;;8.61;43.79;100146.27;301416;114;2877849;-72
2021/03/28 05:55:04;;;;;;;31.56;17.41;;;;;;;8.67;43.68;100156.31;313691;115;1961945;-72
2021/03/28 05:56:36;;;;;;;30.16;16.73;;;;;;;8.74;43.56;100151.88;328789;115;1961963;-73
2021/03/28 05:57:58;;;;;;;31.04;18.69;;;;;;;8.78;43.52;100156.70;350284;114;1961960;-73
2021/03/28 05:59:25;;;;;;;35.16;19.11;;;;;;;8.86;43.19;100150.40;325461;115;1961955;-73
2021/03/28 06:01:06;;;;;;;29.58;17.27;;;;;;;8.90;43.28;100156.28;345513;114;1962022;-72
2021/03/28 06:02:32;;;;;;;30.56;16.22;;;;;;;8.96;43.25;100152.84;350786;114;1961958;-72
2021/03/28 06:03:49;;;;;;;32.36;17.86;;;;;;;9.01;42.97;100153.96;331983;114;2324977;-72
2021/03/28 06:05:29;;;;;;;29.59;18.23;;;;;;;9.05;43.05;100151.75;349523;114;1961955;-72
2021/03/28 06:06:59;;;;;;;28.31;16.87;;;;;;;9.08;43.04;100154.08;349341;114;1961909;-73
2021/03/28 06:08:35;;;;;;;34.46;17.38;;;;;;;9.13;43.00;100151.67;349344;114;1962048;-72
2021/03/28 06:09:56;;;;;;;30.39;16.92;;;;;;;9.16;43.04;100145.91;316184;114;2619081;-72